createdAt,value
2022-08-07T00:10:04.664Z,11.00
2022-08-07T00:20:10.717Z,10.40
2022-08-07T00:30:21.611Z,11.25
2022-08-07T00:40:39.044Z,10.68
2022-08-07T00:50:46.355Z,12.77
2022-08-07T01:00:53.697Z,11.30
2022-08-07T01:10:56.731Z,10.93
2022-08-07T01:21:22.843Z,10.20
2022-08-07T01:31:41.867Z,11.55
2022-08-07T01:42:07.333Z,11.48
2022-08-07T01:52:10.603Z,10.43
2022-08-07T02:02:33.039Z,10.07
2022-08-07T02:12:50.154Z,10.35
2022-08-07T02:22:59.751Z,10.38
2022-08-07T02:33:09.499Z,10.10
2022-08-07T02:43:13.060Z,10.88
2022-08-07T02:53:21.697Z,10.55
2022-08-07T03:03:49.276Z,12.25
2022-08-07T03:13:57.620Z,10.93
2022-08-07T03:24:19.307Z,10.85
2022-08-07T03:34:28.030Z,10.48
2022-08-07T03:44:34.511Z,12.18
2022-08-07T03:54:54.939Z,10.03
2022-08-07T04:04:58.934Z,10.98
2022-08-07T04:15:02.025Z,13.02
2022-08-07T04:25:08.787Z,14.88
2022-08-07T04:35:14.506Z,15.90
2022-08-07T04:45:22.435Z,16.70
2022-08-07T04:58:12.231Z,18.15
2022-08-07T05:06:19.110Z,16.88
2022-08-07T05:16:23.000Z,17.48
2022-08-07T05:26:28.194Z,16.92
2022-08-07T05:36:35.431Z,17.53
2022-08-07T05:46:39.019Z,14.30
2022-08-07T05:56:42.020Z,14.43
2022-08-07T06:06:46.111Z,13.50
2022-08-07T06:16:56.402Z,14.32
2022-08-07T06:26:59.470Z,11.95
2022-08-07T06:37:05.703Z,12.70
2022-08-07T06:47:10.402Z,11.40
2022-08-07T06:57:18.653Z,11.05
2022-08-07T07:07:59.622Z,10.35
2022-08-07T07:18:33.105Z,9.43
2022-08-07T07:29:39.390Z,8.93
2022-08-07T07:39:25.467Z,10.15
2022-08-07T07:50:33.756Z,8.95
2022-08-07T07:59:54.941Z,8.27
2022-08-07T08:10:05.443Z,8.63
2022-08-07T08:20:16.942Z,8.10
2022-08-07T08:30:26.001Z,8.23
2022-08-07T08:50:56.409Z,7.55
2022-08-07T09:01:39.808Z,8.55
2022-08-07T09:12:00.702Z,7.85
2022-08-07T09:24:27.342Z,7.07
2022-08-07T09:33:16.666Z,7.18
2022-08-07T09:43:40.320Z,5.60
2022-08-07T09:54:02.612Z,5.80
2022-08-07T10:04:53.303Z,7.13
2022-08-07T10:15:15.116Z,7.43
2022-08-07T10:25:55.365Z,6.00
2022-08-07T10:36:29.726Z,5.70
2022-08-07T10:46:59.064Z,5.75
2022-08-07T10:57:34.739Z,6.05
2022-08-07T11:08:12.739Z,6.38
2022-08-07T11:18:33.490Z,6.68
2022-08-07T11:28:43.099Z,6.68
2022-08-07T11:39:14.514Z,7.63
2022-08-07T11:50:25.510Z,7.05
2022-08-07T12:00:18.953Z,6.67
2022-08-07T12:10:35.226Z,6.90
2022-08-07T12:20:49.322Z,6.75
2022-08-07T12:30:54.603Z,7.40
2022-08-07T12:41:01.103Z,7.50
2022-08-07T12:51:13.031Z,7.70
2022-08-07T13:01:40.526Z,8.45
2022-08-07T13:12:28.561Z,7.22
2022-08-07T13:22:37.955Z,7.07
2022-08-07T13:33:16.361Z,7.00
2022-08-07T13:43:35.516Z,7.45
2022-08-07T13:53:59.422Z,7.60
2022-08-07T14:04:09.975Z,7.07
2022-08-07T14:14:15.705Z,7.75
2022-08-07T14:24:42.324Z,7.82
2022-08-07T14:34:48.909Z,7.90
2022-08-07T14:45:21.370Z,7.82
2022-08-07T14:55:31.822Z,7.95
2022-08-07T15:05:34.626Z,8.82
2022-08-07T15:15:40.828Z,8.57
2022-08-07T15:25:56.950Z,8.77
2022-08-07T15:36:05.418Z,8.83
2022-08-07T15:46:32.284Z,8.35
2022-08-07T15:56:42.736Z,8.80
2022-08-07T16:06:54.342Z,8.15
2022-08-07T16:17:14.972Z,7.88
2022-08-07T16:27:40.565Z,7.22
2022-08-07T16:38:29.585Z,7.13
2022-08-07T16:50:28.884Z,7.10
2022-08-07T16:59:24.996Z,7.10
2022-08-07T17:10:06.620Z,6.65
2022-08-07T17:20:32.875Z,6.10
2022-08-07T17:30:57.849Z,7.72
2022-08-07T17:42:01.077Z,7.10
2022-08-07T17:52:04.448Z,7.85
2022-08-07T18:02:25.796Z,7.28
2022-08-07T18:13:01.495Z,6.80
2022-08-07T18:23:42.265Z,6.22
2022-08-07T18:33:54.889Z,6.38
2022-08-07T18:44:12.071Z,6.00
2022-08-07T18:54:30.561Z,6.27
2022-08-07T19:04:57.727Z,5.78
2022-08-07T19:16:02.479Z,5.60
2022-08-07T19:26:24.929Z,6.15
2022-08-07T19:36:04.305Z,6.10
2022-08-07T19:46:10.569Z,6.15
2022-08-07T19:57:52.391Z,6.10
2022-08-07T20:06:37.089Z,5.43
2022-08-07T20:16:54.334Z,5.93
2022-08-07T20:27:01.930Z,6.00
2022-08-07T20:37:06.060Z,5.20
2022-08-07T20:47:12.436Z,5.60
2022-08-07T20:57:17.518Z,6.00
2022-08-07T21:07:26.766Z,5.93
2022-08-07T21:18:03.404Z,6.05
2022-08-07T21:28:18.832Z,5.85
2022-08-07T21:38:28.920Z,5.88
2022-08-07T21:48:56.621Z,6.07
2022-08-07T21:59:29.758Z,6.75
2022-08-07T22:09:38.156Z,6.68
2022-08-07T22:20:04.042Z,6.68
